Terminal Aerodrome Forecast
Issued by NWS Twin Cities, MN

Home | Current Version | Previous Version | Text Only | Print | Product List | Glossary Off
Versions: 1 2 3 4 5 6 7 8 9 10 11 12

364
FTUS43 KMPX 222320
TAFSTC
TAF
KSTC 222320Z 2300/2324 26008KT P6SM SKC
     FM230500 23004KT P6SM SCT200
     FM231200 04007KT P6SM BKN200
     FM231800 08006KT P6SM BKN100
     FM232100 09006KT P6SM OVC050=

USA.gov is the U.S. government's official web portal to all federal, state and local government web resources and services.